sensor_id;sensor_type;location;lat;lon;timestamp;pressure;altitude;pressure_sealevel;temperature;humidity
80180;BME280;69505;52.134;5.438;2023-06-22T00:02:26;102106.56;;;16.75;85.24
80180;BME280;69505;52.134;5.438;2023-06-22T00:04:52;102106.44;;;16.77;86.04
80180;BME280;69505;52.134;5.438;2023-06-22T00:07:19;102098.66;;;16.74;87.30
80180;BME280;69505;52.134;5.438;2023-06-22T00:09:46;102104.75;;;16.76;86.87
80180;BME280;69505;52.134;5.438;2023-06-22T00:12:12;102111.09;;;16.75;86.57
80180;BME280;69505;52.134;5.438;2023-06-22T00:14:39;102106.94;;;16.71;86.22
80180;BME280;69505;52.134;5.438;2023-06-22T00:17:05;102102.94;;;16.65;85.92
80180;BME280;69505;52.134;5.438;2023-06-22T00:19:32;102106.59;;;16.64;86.52
80180;BME280;69505;52.134;5.438;2023-06-22T00:22:02;102093.56;;;16.59;87.01
80180;BME280;69505;52.134;5.438;2023-06-22T00:24:30;102105.66;;;16.54;86.91
80180;BME280;69505;52.134;5.438;2023-06-22T00:26:56;102103.47;;;16.48;86.43
80180;BME280;69505;52.134;5.438;2023-06-22T00:29:23;102101.06;;;16.44;86.95
80180;BME280;69505;52.134;5.438;2023-06-22T00:31:51;102102.88;;;16.44;86.81
80180;BME280;69505;52.134;5.438;2023-06-22T00:34:18;102091.41;;;16.42;86.33
80180;BME280;69505;52.134;5.438;2023-06-22T00:36:44;102091.41;;;16.42;86.31
80180;BME280;69505;52.134;5.438;2023-06-22T00:39:11;102086.31;;;16.39;86.61
80180;BME280;69505;52.134;5.438;2023-06-22T00:41:38;102085.59;;;16.37;86.04
80180;BME280;69505;52.134;5.438;2023-06-22T00:44:05;102084.84;;;16.35;86.55
80180;BME280;69505;52.134;5.438;2023-06-22T00:46:33;102085.97;;;16.32;86.72
80180;BME280;69505;52.134;5.438;2023-06-22T00:49:00;102080.09;;;16.27;87.04
80180;BME280;69505;52.134;5.438;2023-06-22T00:51:26;102076.84;;;16.23;87.32
80180;BME280;69505;52.134;5.438;2023-06-22T00:53:54;102075.38;;;16.19;86.62
80180;BME280;69505;52.134;5.438;2023-06-22T00:56:22;102080.97;;;16.16;87.28
80180;BME280;69505;52.134;5.438;2023-06-22T00:58:51;102082.09;;;16.14;87.94
80180;BME280;69505;52.134;5.438;2023-06-22T01:01:19;102083.06;;;16.13;88.27
80180;BME280;69505;52.134;5.438;2023-06-22T01:03:50;102073.31;;;16.12;87.70
80180;BME280;69505;52.134;5.438;2023-06-22T01:06:27;102074.66;;;16.06;87.37
80180;BME280;69505;52.134;5.438;2023-06-22T01:09:15;102072.47;;;16.00;87.28
80180;BME280;69505;52.134;5.438;2023-06-22T01:11:45;102073.72;;;15.96;88.08
80180;BME280;69505;52.134;5.438;2023-06-22T01:14:24;102093.69;;;15.92;88.74
80180;BME280;69505;52.134;5.438;2023-06-22T01:16:54;102091.75;;;15.94;89.68
80180;BME280;69505;52.134;5.438;2023-06-22T01:22:02;102092.22;;;15.88;88.22
80180;BME280;69505;52.134;5.438;2023-06-22T01:24:33;102090.13;;;15.80;88.05
80180;BME280;69505;52.134;5.438;2023-06-22T01:29:52;102075.84;;;15.68;88.06
80180;BME280;69505;52.134;5.438;2023-06-22T01:32:21;102073.91;;;15.70;89.42
80180;BME280;69505;52.134;5.438;2023-06-22T01:34:49;102075.25;;;15.65;88.97
80180;BME280;69505;52.134;5.438;2023-06-22T01:37:16;102076.31;;;15.62;89.23
80180;BME280;69505;52.134;5.438;2023-06-22T01:39:43;102082.78;;;15.59;89.40
80180;BME280;69505;52.134;5.438;2023-06-22T01:42:10;102077.69;;;15.56;88.68
80180;BME280;69505;52.134;5.438;2023-06-22T01:44:38;102072.81;;;15.50;88.44
80180;BME280;69505;52.134;5.438;2023-06-22T01:47:04;102077.53;;;15.47;89.33
80180;BME280;69505;52.134;5.438;2023-06-22T01:49:32;102074.38;;;15.41;88.32
80180;BME280;69505;52.134;5.438;2023-06-22T01:51:59;102072.75;;;15.39;88.96
80180;BME280;69505;52.134;5.438;2023-06-22T01:54:26;102073.00;;;15.36;88.67
80180;BME280;69505;52.134;5.438;2023-06-22T01:56:52;102063.41;;;15.33;89.17
80180;BME280;69505;52.134;5.438;2023-06-22T02:02:02;102074.34;;;15.30;89.54
80180;BME280;69505;52.134;5.438;2023-06-22T02:04:36;102072.13;;;15.24;89.43
80180;BME280;69505;52.134;5.438;2023-06-22T02:07:08;102067.75;;;15.23;89.20
80180;BME280;69505;52.134;5.438;2023-06-22T02:09:37;102058.00;;;15.22;90.77
80180;BME280;69505;52.134;5.438;2023-06-22T02:12:06;102065.09;;;15.23;91.03
80180;BME280;69505;52.134;5.438;2023-06-22T02:14:34;102063.81;;;15.16;89.78
80180;BME280;69505;52.134;5.438;2023-06-22T02:17:01;102064.19;;;15.11;90.14
80180;BME280;69505;52.134;5.438;2023-06-22T02:19:30;102065.78;;;15.14;91.20
80180;BME280;69505;52.134;5.438;2023-06-22T02:21:59;102069.53;;;15.11;89.95
80180;BME280;69505;52.134;5.438;2023-06-22T02:24:26;102067.34;;;15.05;90.07
80180;BME280;69505;52.134;5.438;2023-06-22T02:26:52;102057.50;;;15.06;90.33
80180;BME280;69505;52.134;5.438;2023-06-22T02:29:19;102063.69;;;15.06;90.63
80180;BME280;69505;52.134;5.438;2023-06-22T02:31:45;102054.94;;;15.04;90.87
80180;BME280;69505;52.134;5.438;2023-06-22T02:34:12;102055.56;;;15.08;91.44
80180;BME280;69505;52.134;5.438;2023-06-22T02:36:48;102059.31;;;15.05;90.68
80180;BME280;69505;52.134;5.438;2023-06-22T02:39:25;102059.78;;;14.99;91.19
80180;BME280;69505;52.134;5.438;2023-06-22T02:41:53;102063.31;;;14.99;91.21
80180;BME280;69505;52.134;5.438;2023-06-22T02:44:20;102061.59;;;14.98;91.66
80180;BME280;69505;52.134;5.438;2023-06-22T02:46:47;102060.38;;;14.91;90.98
80180;BME280;69505;52.134;5.438;2023-06-22T02:49:14;102049.78;;;14.90;90.90
80180;BME280;69505;52.134;5.438;2023-06-22T02:51:44;102051.81;;;14.86;90.88
80180;BME280;69505;52.134;5.438;2023-06-22T02:54:11;102052.06;;;14.83;90.57
80180;BME280;69505;52.134;5.438;2023-06-22T02:56:38;102052.81;;;14.85;91.15
80180;BME280;69505;52.134;5.438;2023-06-22T02:59:06;102051.97;;;14.85;89.98
80180;BME280;69505;52.134;5.438;2023-06-22T03:01:33;102057.63;;;14.80;90.60
80180;BME280;69505;52.134;5.438;2023-06-22T03:04:06;102060.75;;;14.74;90.31
80180;BME280;69505;52.134;5.438;2023-06-22T03:06:34;102051.91;;;14.73;91.37
80180;BME280;69505;52.134;5.438;2023-06-22T03:09:03;102055.41;;;14.74;91.07
80180;BME280;69505;52.134;5.438;2023-06-22T03:11:31;102059.19;;;14.71;91.06
80180;BME280;69505;52.134;5.438;2023-06-22T03:13:59;102061.75;;;14.73;91.45
80180;BME280;69505;52.134;5.438;2023-06-22T03:16:26;102056.41;;;14.73;91.38
80180;BME280;69505;52.134;5.438;2023-06-22T03:18:53;102059.44;;;14.68;91.78
80180;BME280;69505;52.134;5.438;2023-06-22T03:21:22;102059.81;;;14.75;92.40
80180;BME280;69505;52.134;5.438;2023-06-22T03:23:49;102056.59;;;14.70;91.32
80180;BME280;69505;52.134;5.438;2023-06-22T03:26:19;102058.78;;;14.65;91.27
80180;BME280;69505;52.134;5.438;2023-06-22T03:28:46;102061.72;;;14.61;91.11
80180;BME280;69505;52.134;5.438;2023-06-22T03:31:13;102049.28;;;14.60;91.13
80180;BME280;69505;52.134;5.438;2023-06-22T03:33:39;102034.22;;;14.59;91.81
80180;BME280;69505;52.134;5.438;2023-06-22T03:36:06;102036.75;;;14.61;91.57
80180;BME280;69505;52.134;5.438;2023-06-22T03:38:33;102035.06;;;14.60;91.49
80180;BME280;69505;52.134;5.438;2023-06-22T03:41:00;102030.56;;;14.60;91.05
80180;BME280;69505;52.134;5.438;2023-06-22T03:43:26;102036.75;;;14.61;91.33
80180;BME280;69505;52.134;5.438;2023-06-22T03:45:53;102040.31;;;14.61;91.03
80180;BME280;69505;52.134;5.438;2023-06-22T03:48:19;102042.50;;;14.68;91.92
80180;BME280;69505;52.134;5.438;2023-06-22T03:50:46;102036.09;;;14.70;92.41
80180;BME280;69505;52.134;5.438;2023-06-22T03:53:12;102030.34;;;14.64;91.22
80180;BME280;69505;52.134;5.438;2023-06-22T03:55:48;102029.63;;;14.61;90.73
80180;BME280;69505;52.134;5.438;2023-06-22T03:58:16;102024.88;;;14.65;91.39
80180;BME280;69505;52.134;5.438;2023-06-22T04:00:50;102028.38;;;14.66;90.97
80180;BME280;69505;52.134;5.438;2023-06-22T04:03:17;102028.28;;;14.67;91.47
80180;BME280;69505;52.134;5.438;2023-06-22T04:05:47;102033.53;;;14.69;91.76
80180;BME280;69505;52.134;5.438;2023-06-22T04:08:15;102027.09;;;14.71;92.12
80180;BME280;69505;52.134;5.438;2023-06-22T04:10:41;102029.66;;;14.73;92.13
80180;BME280;69505;52.134;5.438;2023-06-22T04:13:08;102024.94;;;14.76;92.02
80180;BME280;69505;52.134;5.438;2023-06-22T04:15:35;102021.06;;;14.80;92.12
80180;BME280;69505;52.134;5.438;2023-06-22T04:18:02;102017.19;;;14.85;92.33
80180;BME280;69505;52.134;5.438;2023-06-22T04:20:29;102020.34;;;14.90;92.10
80180;BME280;69505;52.134;5.438;2023-06-22T04:22:55;102017.31;;;14.94;92.16
80180;BME280;69505;52.134;5.438;2023-06-22T04:25:22;102014.41;;;14.97;91.87
80180;BME280;69505;52.134;5.438;2023-06-22T04:27:49;102012.34;;;15.01;91.95
80180;BME280;69505;52.134;5.438;2023-06-22T04:30:16;102012.97;;;15.05;92.50
80180;BME280;69505;52.134;5.438;2023-06-22T04:32:44;102009.09;;;15.09;92.57
80180;BME280;69505;52.134;5.438;2023-06-22T04:35:11;102019.53;;;15.12;92.46
80180;BME280;69505;52.134;5.438;2023-06-22T04:37:38;102012.25;;;15.14;91.96
80180;BME280;69505;52.134;5.438;2023-06-22T04:40:06;102008.13;;;15.21;91.98
80180;BME280;69505;52.134;5.438;2023-06-22T04:42:34;102009.59;;;15.25;92.11
80180;BME280;69505;52.134;5.438;2023-06-22T04:45:02;102005.47;;;15.32;91.13
80180;BME280;69505;52.134;5.438;2023-06-22T04:47:29;102014.72;;;15.39;91.51
80180;BME280;69505;52.134;5.438;2023-06-22T04:49:55;102018.63;;;15.47;91.77
80180;BME280;69505;52.134;5.438;2023-06-22T04:52:22;102026.91;;;15.55;91.66
80180;BME280;69505;52.134;5.438;2023-06-22T04:54:48;102012.03;;;15.62;91.24
80180;BME280;69505;52.134;5.438;2023-06-22T04:57:16;102025.47;;;15.73;91.78
80180;BME280;69505;52.134;5.438;2023-06-22T04:59:43;102020.47;;;15.80;91.13
80180;BME280;69505;52.134;5.438;2023-06-22T05:02:10;102020.09;;;15.85;91.66
80180;BME280;69505;52.134;5.438;2023-06-22T05:04:37;102020.34;;;15.93;90.89
80180;BME280;69505;52.134;5.438;2023-06-22T05:07:06;102019.84;;;15.99;90.46
80180;BME280;69505;52.134;5.438;2023-06-22T05:09:33;102024.72;;;16.05;90.42
80180;BME280;69505;52.134;5.438;2023-06-22T05:12:00;102029.81;;;16.08;90.43
80180;BME280;69505;52.134;5.438;2023-06-22T05:14:29;102036.63;;;16.12;90.62
80180;BME280;69505;52.134;5.438;2023-06-22T05:16:56;102030.78;;;16.18;90.50
80180;BME280;69505;52.134;5.438;2023-06-22T05:19:25;102026.88;;;16.22;89.80
80180;BME280;69505;52.134;5.438;2023-06-22T05:21:57;102030.88;;;16.28;91.34
80180;BME280;69505;52.134;5.438;2023-06-22T05:24:24;102026.47;;;16.38;90.93
80180;BME280;69505;52.134;5.438;2023-06-22T05:26:51;102031.06;;;16.48;90.47
80180;BME280;69505;52.134;5.438;2023-06-22T05:29:17;102027.75;;;16.55;90.49
80180;BME280;69505;52.134;5.438;2023-06-22T05:31:44;102025.41;;;16.62;90.45
80180;BME280;69505;52.134;5.438;2023-06-22T05:34:10;102027.28;;;16.71;90.18
80180;BME280;69505;52.134;5.438;2023-06-22T05:36:37;102034.22;;;16.85;90.04
80180;BME280;69505;52.134;5.438;2023-06-22T05:39:11;102025.59;;;17.02;89.82
80180;BME280;69505;52.134;5.438;2023-06-22T05:41:41;102026.69;;;17.21;89.62
80180;BME280;69505;52.134;5.438;2023-06-22T05:44:09;102021.25;;;17.32;88.50
80180;BME280;69505;52.134;5.438;2023-06-22T05:46:36;102025.56;;;17.44;88.45
80180;BME280;69505;52.134;5.438;2023-06-22T05:49:03;102035.50;;;17.54;88.38
80180;BME280;69505;52.134;5.438;2023-06-22T05:51:29;102029.31;;;17.63;87.67
80180;BME280;69505;52.134;5.438;2023-06-22T05:53:56;102031.34;;;17.71;87.69
80180;BME280;69505;52.134;5.438;2023-06-22T05:56:22;102029.66;;;17.79;87.49
80180;BME280;69505;52.134;5.438;2023-06-22T05:58:49;102028.63;;;17.92;87.26
80180;BME280;69505;52.134;5.438;2023-06-22T06:01:16;102039.16;;;18.14;87.04
80180;BME280;69505;52.134;5.438;2023-06-22T06:03:42;102041.31;;;18.40;86.39
80180;BME280;69505;52.134;5.438;2023-06-22T06:06:10;102035.38;;;18.56;85.60
80180;BME280;69505;52.134;5.438;2023-06-22T06:08:38;102037.22;;;18.65;84.04
80180;BME280;69505;52.134;5.438;2023-06-22T06:11:05;102037.78;;;18.69;84.31
80180;BME280;69505;52.134;5.438;2023-06-22T06:13:31;102026.44;;;18.75;84.05
80180;BME280;69505;52.134;5.438;2023-06-22T06:15:58;102026.47;;;18.84;84.89
80180;BME280;69505;52.134;5.438;2023-06-22T06:18:25;102020.53;;;18.91;84.13
80180;BME280;69505;52.134;5.438;2023-06-22T06:20:52;102019.22;;;19.04;84.56
80180;BME280;69505;52.134;5.438;2023-06-22T06:23:19;102010.56;;;19.11;83.95
80180;BME280;69505;52.134;5.438;2023-06-22T06:25:45;102009.97;;;19.26;82.85
80180;BME280;69505;52.134;5.438;2023-06-22T06:28:12;102012.75;;;19.44;82.81
80180;BME280;69505;52.134;5.438;2023-06-22T06:30:39;102017.09;;;19.55;82.26
80180;BME280;69505;52.134;5.438;2023-06-22T06:33:05;102016.34;;;19.63;81.49
80180;BME280;69505;52.134;5.438;2023-06-22T06:35:35;102005.88;;;19.60;81.29
80180;BME280;69505;52.134;5.438;2023-06-22T06:38:02;102016.47;;;19.71;80.97
80180;BME280;69505;52.134;5.438;2023-06-22T06:40:29;102005.81;;;19.79;80.88
80180;BME280;69505;52.134;5.438;2023-06-22T06:42:56;102005.22;;;19.85;81.12
80180;BME280;69505;52.134;5.438;2023-06-22T06:45:24;102008.28;;;19.91;80.68
80180;BME280;69505;52.134;5.438;2023-06-22T06:47:52;101998.16;;;20.02;80.16
80180;BME280;69505;52.134;5.438;2023-06-22T06:50:19;102000.78;;;20.12;79.97
80180;BME280;69505;52.134;5.438;2023-06-22T06:52:45;101995.03;;;20.25;79.81
80180;BME280;69505;52.134;5.438;2023-06-22T06:55:12;102002.41;;;20.41;78.21
80180;BME280;69505;52.134;5.438;2023-06-22T06:57:41;102001.81;;;20.47;78.36
80180;BME280;69505;52.134;5.438;2023-06-22T07:00:12;101999.69;;;20.68;78.06
80180;BME280;69505;52.134;5.438;2023-06-22T07:02:51;101990.63;;;20.78;76.96
80180;BME280;69505;52.134;5.438;2023-06-22T07:05:18;102000.88;;;20.92;77.10
80180;BME280;69505;52.134;5.438;2023-06-22T07:07:45;101994.50;;;21.01;77.12
80180;BME280;69505;52.134;5.438;2023-06-22T07:10:11;101996.97;;;21.13;74.15
80180;BME280;69505;52.134;5.438;2023-06-22T07:12:38;101986.50;;;21.18;74.50
80180;BME280;69505;52.134;5.438;2023-06-22T07:15:06;101987.44;;;21.35;74.57
80180;BME280;69505;52.134;5.438;2023-06-22T07:17:36;101991.06;;;21.43;72.46
80180;BME280;69505;52.134;5.438;2023-06-22T07:20:04;101989.06;;;21.45;72.86
80180;BME280;69505;52.134;5.438;2023-06-22T07:22:38;101989.28;;;21.60;72.60
80180;BME280;69505;52.134;5.438;2023-06-22T07:25:05;101994.81;;;21.85;72.08
80180;BME280;69505;52.134;5.438;2023-06-22T07:27:39;101989.72;;;22.57;68.40
80180;BME280;69505;52.134;5.438;2023-06-22T07:30:09;101985.28;;;24.32;64.36
80180;BME280;69505;52.134;5.438;2023-06-22T07:32:36;101986.63;;;25.71;58.98
80180;BME280;69505;52.134;5.438;2023-06-22T07:35:03;101991.31;;;27.00;53.77
80180;BME280;69505;52.134;5.438;2023-06-22T07:37:31;101983.03;;;27.91;50.46
80180;BME280;69505;52.134;5.438;2023-06-22T07:39:59;101982.28;;;28.44;52.75
80180;BME280;69505;52.134;5.438;2023-06-22T07:42:26;101980.00;;;28.74;49.19
80180;BME280;69505;52.134;5.438;2023-06-22T07:44:53;101973.66;;;28.47;50.93
80180;BME280;69505;52.134;5.438;2023-06-22T07:47:21;101967.53;;;28.12;51.22
80180;BME280;69505;52.134;5.438;2023-06-22T07:49:51;101967.94;;;28.09;50.59
80180;BME280;69505;52.134;5.438;2023-06-22T07:52:21;101955.34;;;28.08;50.00
80180;BME280;69505;52.134;5.438;2023-06-22T07:54:47;101953.69;;;28.20;49.83
80180;BME280;69505;52.134;5.438;2023-06-22T07:57:14;101958.53;;;28.51;49.38
80180;BME280;69505;52.134;5.438;2023-06-22T07:59:40;101958.53;;;28.85;50.34
80180;BME280;69505;52.134;5.438;2023-06-22T08:02:07;101956.41;;;29.13;47.15
80180;BME280;69505;52.134;5.438;2023-06-22T08:04:35;101949.25;;;29.64;46.98
80180;BME280;69505;52.134;5.438;2023-06-22T08:07:02;101951.34;;;29.75;44.82
80180;BME280;69505;52.134;5.438;2023-06-22T08:09:31;101949.22;;;29.84;46.11
80180;BME280;69505;52.134;5.438;2023-06-22T08:11:58;101938.66;;;30.13;45.47
80180;BME280;69505;52.134;5.438;2023-06-22T08:14:29;101934.13;;;30.57;44.83
80180;BME280;69505;52.134;5.438;2023-06-22T08:16:56;101928.81;;;30.62;43.86
80180;BME280;69505;52.134;5.438;2023-06-22T08:19:22;101925.59;;;30.90;43.24
80180;BME280;69505;52.134;5.438;2023-06-22T08:21:49;101924.94;;;31.13;42.34
80180;BME280;69505;52.134;5.438;2023-06-22T08:24:15;101919.91;;;31.10;44.85
80180;BME280;69505;52.134;5.438;2023-06-22T08:26:42;101910.19;;;31.63;42.09
80180;BME280;69505;52.134;5.438;2023-06-22T08:29:09;101913.53;;;30.73;43.18
80180;BME280;69505;52.134;5.438;2023-06-22T08:31:35;101898.63;;;30.12;43.77
80180;BME280;69505;52.134;5.438;2023-06-22T08:34:02;101902.50;;;30.54;46.47
80180;BME280;69505;52.134;5.438;2023-06-22T08:36:28;101888.13;;;30.78;43.47
80180;BME280;69505;52.134;5.438;2023-06-22T08:38:59;101885.72;;;29.87;44.61
80180;BME280;69505;52.134;5.438;2023-06-22T08:41:27;101890.47;;;29.73;44.29
80180;BME280;69505;52.134;5.438;2023-06-22T08:43:54;101888.22;;;29.57;45.04
80180;BME280;69505;52.134;5.438;2023-06-22T08:46:20;101880.63;;;29.59;44.55
80180;BME280;69505;52.134;5.438;2023-06-22T08:48:49;101883.94;;;29.68;43.87
80180;BME280;69505;52.134;5.438;2023-06-22T08:51:16;101883.66;;;29.44;44.28
80180;BME280;69505;52.134;5.438;2023-06-22T08:53:43;101880.44;;;29.92;42.39
80180;BME280;69505;52.134;5.438;2023-06-22T08:56:11;101881.53;;;30.42;44.01
80180;BME280;69505;52.134;5.438;2023-06-22T08:58:38;101878.13;;;30.46;43.07
80180;BME280;69505;52.134;5.438;2023-06-22T09:01:04;101878.91;;;30.28;44.85
80180;BME280;69505;52.134;5.438;2023-06-22T09:03:31;101875.53;;;29.63;42.82
80180;BME280;69505;52.134;5.438;2023-06-22T09:05:59;101880.56;;;29.21;43.15
80180;BME280;69505;52.134;5.438;2023-06-22T09:08:26;101888.63;;;28.95;41.30
80180;BME280;69505;52.134;5.438;2023-06-22T09:10:52;101887.03;;;28.61;40.47
80180;BME280;69505;52.134;5.438;2023-06-22T09:13:19;101885.13;;;28.28;39.88
80180;BME280;69505;52.134;5.438;2023-06-22T09:15:45;101885.97;;;28.36;42.54
80180;BME280;69505;52.134;5.438;2023-06-22T09:18:13;101885.13;;;28.68;44.80
80180;BME280;69505;52.134;5.438;2023-06-22T09:20:40;101881.75;;;28.46;44.87
80180;BME280;69505;52.134;5.438;2023-06-22T09:23:06;101875.47;;;28.52;46.53
80180;BME280;69505;52.134;5.438;2023-06-22T09:25:33;101872.72;;;28.06;46.07
80180;BME280;69505;52.134;5.438;2023-06-22T09:28:00;101876.00;;;27.68;48.15
80180;BME280;69505;52.134;5.438;2023-06-22T09:30:26;101882.81;;;28.12;46.32
80180;BME280;69505;52.134;5.438;2023-06-22T09:32:53;101878.41;;;28.38;48.30
80180;BME280;69505;52.134;5.438;2023-06-22T09:35:20;101877.88;;;29.07;44.99
80180;BME280;69505;52.134;5.438;2023-06-22T09:37:47;101871.97;;;29.04;44.61
80180;BME280;69505;52.134;5.438;2023-06-22T09:40:14;101879.00;;;28.86;45.93
80180;BME280;69505;52.134;5.438;2023-06-22T09:42:43;101870.28;;;29.09;45.55
80180;BME280;69505;52.134;5.438;2023-06-22T09:45:10;101868.84;;;29.52;43.28
80180;BME280;69505;52.134;5.438;2023-06-22T09:47:37;101875.22;;;29.84;44.81
80180;BME280;69505;52.134;5.438;2023-06-22T09:50:05;101863.88;;;29.35;43.44
80180;BME280;69505;52.134;5.438;2023-06-22T09:52:31;101860.66;;;28.93;44.18
80180;BME280;69505;52.134;5.438;2023-06-22T09:55:13;101867.06;;;28.54;46.48
80180;BME280;69505;52.134;5.438;2023-06-22T09:57:41;101862.84;;;28.25;46.66
80180;BME280;69505;52.134;5.438;2023-06-22T10:00:08;101862.41;;;28.01;47.41
80180;BME280;69505;52.134;5.438;2023-06-22T10:02:35;101864.44;;;27.66;47.76
80180;BME280;69505;52.134;5.438;2023-06-22T10:05:02;101863.69;;;27.24;48.83
80180;BME280;69505;52.134;5.438;2023-06-22T10:07:30;101863.28;;;26.92;48.69
80180;BME280;69505;52.134;5.438;2023-06-22T10:09:56;101867.78;;;26.71;49.00
80180;BME280;69505;52.134;5.438;2023-06-22T10:12:23;101875.56;;;26.46;49.41
80180;BME280;69505;52.134;5.438;2023-06-22T10:14:49;101874.22;;;26.36;49.82
80180;BME280;69505;52.134;5.438;2023-06-22T10:17:16;101868.91;;;26.27;51.07
80180;BME280;69505;52.134;5.438;2023-06-22T10:19:43;101857.44;;;26.10;49.83
80180;BME280;69505;52.134;5.438;2023-06-22T10:22:09;101860.53;;;26.07;51.59
80180;BME280;69505;52.134;5.438;2023-06-22T10:24:36;101864.50;;;25.83;49.23
80180;BME280;69505;52.134;5.438;2023-06-22T10:27:05;101854.75;;;25.74;49.57
80180;BME280;69505;52.134;5.438;2023-06-22T10:29:31;101855.84;;;25.58;51.51
80180;BME280;69505;52.134;5.438;2023-06-22T10:31:58;101863.84;;;25.45;51.93
80180;BME280;69505;52.134;5.438;2023-06-22T10:34:24;101868.00;;;25.26;52.98
80180;BME280;69505;52.134;5.438;2023-06-22T10:36:51;101863.31;;;25.20;51.81
80180;BME280;69505;52.134;5.438;2023-06-22T10:39:17;101866.03;;;25.20;52.56
80180;BME280;69505;52.134;5.438;2023-06-22T10:41:44;101870.06;;;25.09;52.67
80180;BME280;69505;52.134;5.438;2023-06-22T10:44:11;101864.63;;;25.09;54.75
80180;BME280;69505;52.134;5.438;2023-06-22T10:46:38;101862.56;;;25.11;54.27
80180;BME280;69505;52.134;5.438;2023-06-22T10:49:05;101866.91;;;25.05;53.08
80180;BME280;69505;52.134;5.438;2023-06-22T10:51:32;101863.88;;;25.00;53.57
80180;BME280;69505;52.134;5.438;2023-06-22T10:53:58;101866.91;;;25.05;54.24
80180;BME280;69505;52.134;5.438;2023-06-22T10:56:25;101859.59;;;24.91;53.96
80180;BME280;69505;52.134;5.438;2023-06-22T10:58:52;101861.66;;;24.89;54.43
80180;BME280;69505;52.134;5.438;2023-06-22T11:01:20;101866.53;;;24.94;54.66
80180;BME280;69505;52.134;5.438;2023-06-22T11:04:02;101865.94;;;24.98;52.91
80180;BME280;69505;52.134;5.438;2023-06-22T11:06:29;101851.03;;;25.09;54.85
80180;BME280;69505;52.134;5.438;2023-06-22T11:08:56;101858.19;;;25.25;56.43
80180;BME280;69505;52.134;5.438;2023-06-22T11:11:37;101849.34;;;25.38;53.12
80180;BME280;69505;52.134;5.438;2023-06-22T11:14:03;101851.09;;;25.45;54.14
80180;BME280;69505;52.134;5.438;2023-06-22T11:16:30;101850.41;;;25.58;54.36
80180;BME280;69505;52.134;5.438;2023-06-22T11:18:56;101844.63;;;25.68;54.52
80180;BME280;69505;52.134;5.438;2023-06-22T11:21:23;101842.84;;;25.75;54.03
80180;BME280;69505;52.134;5.438;2023-06-22T11:23:50;101844.31;;;25.78;54.23
80180;BME280;69505;52.134;5.438;2023-06-22T11:26:17;101841.41;;;25.79;55.33
80180;BME280;69505;52.134;5.438;2023-06-22T11:28:43;101842.63;;;25.91;51.93
80180;BME280;69505;52.134;5.438;2023-06-22T11:31:10;101834.84;;;25.73;53.54
80180;BME280;69505;52.134;5.438;2023-06-22T11:33:52;101842.41;;;25.93;56.65
80180;BME280;69505;52.134;5.438;2023-06-22T11:36:18;101838.56;;;25.87;53.22
80180;BME280;69505;52.134;5.438;2023-06-22T11:38:45;101829.00;;;25.91;53.05
80180;BME280;69505;52.134;5.438;2023-06-22T11:41:11;101832.56;;;25.92;52.89
80180;BME280;69505;52.134;5.438;2023-06-22T11:43:38;101818.53;;;25.95;53.83
80180;BME280;69505;52.134;5.438;2023-06-22T11:46:05;101818.75;;;25.94;53.96
80180;BME280;69505;52.134;5.438;2023-06-22T11:48:31;101818.09;;;25.91;54.52
80180;BME280;69505;52.134;5.438;2023-06-22T11:50:58;101810.13;;;25.90;52.02
80180;BME280;69505;52.134;5.438;2023-06-22T11:53:26;101810.81;;;25.99;52.59
80180;BME280;69505;52.134;5.438;2023-06-22T11:55:53;101810.22;;;26.03;55.50
80180;BME280;69505;52.134;5.438;2023-06-22T11:58:21;101809.16;;;25.98;54.18
80180;BME280;69505;52.134;5.438;2023-06-22T12:00:48;101808.09;;;25.99;54.23
80180;BME280;69505;52.134;5.438;2023-06-22T12:03:18;101805.97;;;25.94;54.10
80180;BME280;69505;52.134;5.438;2023-06-22T12:05:45;101805.16;;;25.94;54.32
80180;BME280;69505;52.134;5.438;2023-06-22T12:08:12;101803.94;;;26.03;56.26
80180;BME280;69505;52.134;5.438;2023-06-22T12:10:40;101807.97;;;25.85;53.81
80180;BME280;69505;52.134;5.438;2023-06-22T12:13:06;101795.78;;;25.81;54.15
80180;BME280;69505;52.134;5.438;2023-06-22T12:15:33;101797.34;;;25.69;54.31
80180;BME280;69505;52.134;5.438;2023-06-22T12:17:59;101796.81;;;25.59;56.19
80180;BME280;69505;52.134;5.438;2023-06-22T12:20:28;101795.47;;;25.48;55.90
80180;BME280;69505;52.134;5.438;2023-06-22T12:22:55;101802.44;;;25.36;56.96
80180;BME280;69505;52.134;5.438;2023-06-22T12:25:24;101800.88;;;25.26;58.79
80180;BME280;69505;52.134;5.438;2023-06-22T12:27:51;101802.31;;;25.07;60.81
80180;BME280;69505;52.134;5.438;2023-06-22T12:30:17;101797.16;;;24.83;62.20
80180;BME280;69505;52.134;5.438;2023-06-22T12:32:44;101797.00;;;24.69;64.25
80180;BME280;69505;52.134;5.438;2023-06-22T12:35:11;101794.09;;;24.56;64.45
80180;BME280;69505;52.134;5.438;2023-06-22T12:37:41;101785.44;;;24.52;65.54
80180;BME280;69505;52.134;5.438;2023-06-22T12:40:09;101790.75;;;24.31;64.87
80180;BME280;69505;52.134;5.438;2023-06-22T12:42:36;101792.44;;;24.17;63.48
80180;BME280;69505;52.134;5.438;2023-06-22T12:45:03;101789.06;;;24.15;64.43
80180;BME280;69505;52.134;5.438;2023-06-22T12:47:30;101785.69;;;24.13;65.48
80180;BME280;69505;52.134;5.438;2023-06-22T12:49:57;101782.97;;;24.13;64.47
80180;BME280;69505;52.134;5.438;2023-06-22T12:52:23;101779.94;;;24.08;66.32
80180;BME280;69505;52.134;5.438;2023-06-22T12:54:50;101782.66;;;24.08;66.56
80180;BME280;69505;52.134;5.438;2023-06-22T12:57:21;101781.72;;;24.01;64.79
80180;BME280;69505;52.134;5.438;2023-06-22T12:59:48;101776.28;;;24.01;63.91
80180;BME280;69505;52.134;5.438;2023-06-22T13:02:15;101781.06;;;23.99;65.53